CYBB/YBB METAR and TAF weather

Enter ICAO airport designator
Station Type Date Time Source
CYBB METAR 2020/07/13 14:00 UTC NOAA

CYBB 131400Z 21013KT 15SM FEW040 OVC080 18/11 A2975 RMK SC1AC7 SLP077 DENSITY ALT 600FT


Station Type Date Time Source
CYBB Decoded METAR 2020/07/13 14:00 UTC NOAA

Pelly Bay Airport, Canada (CYBB) 68-32N 089-49W
Jul 13, 2020 - 10:00 AM EDT / 2020.07.13 1400 UTC
Wind: from the SSW (210 degrees) at 15 MPH (13 KT):0
Visibility: 15 mile(s):0
Sky conditions: overcast
Temperature: 64 F (18 C)
Dew Point: 51 F (11 C)
Relative Humidity: 63%
Pressure (altimeter): 29.75 in. Hg (1007 hPa)
ob: CYBB 131400Z 21013KT 15SM FEW040 OVC080 18/11 A2975 RMK SC1AC7 SLP077 DENSITY ALT 600FT
cycle: 14

Station Type Date Time Source
CYBB TAF 2020/07/13 14:00 UTC NOAA

TAF CYBB 131338Z 1314/1323 22015KT P6SM FEW040 OVC080
TEMPO 1314/1323 SCT080 OVC160
RMK NXT FCST BY 131900Z

Example: see airport list